Terminal Aerodrome Forecast
Issued by NWS

Home | Current Version | Previous Version | Text Only | Print | Product List | Glossary On
Versions: 1 2 3 4 5 6 7 8 9 10 11 12 13 14 15 16 17 18 19 20 21 22 23 24 25 26 27
000
FTUS41 KGYX 201120
TAFAUG
TAF
KAUG 201120Z 2012/2112 02008KT 2SM BR OVC002
     FM201400 02011KT P6SM -SHRA OVC007
     FM201800 02011G18KT P6SM OVC025
     FM210000 01010KT P6SM BKN035=

USA.gov is the U.S. government's official web portal to all federal, state and local government web resources and services.